Time;durP1;ratioP1;P1;durP2;ratioP2;P2;SDS_P1;SDS_P2;PMS_P1;PMS_P2;Temp;Humidity;BMP_temperature;BMP_pressure;BME280_temperature;BME280_humidity;BME280_pressure;Samples;Min_cycle;Max_cycle;Signal;HPM_P1;HPM_P2
2023/03/30 00:01:13;;;;;;;28.08;16.00;;;8.60;99.90;;;8.64;100.00;99955.03;4868089;29;20041;-77
2023/03/30 00:03:43;;;;;;;21.73;15.77;;;8.50;99.90;;;8.74;100.00;99988.00;4868777;29;20037;-77
2023/03/30 00:06:13;;;;;;;23.23;14.35;;;8.50;99.90;;;9.06;100.00;99984.41;4864451;29;20037;-77
2023/03/30 00:08:39;;;;;;;22.27;14.75;;;8.50;99.90;;;9.03;100.00;99969.38;4861251;29;20049;-78
2023/03/30 00:11:08;;;;;;;21.88;13.70;;;8.50;99.90;;;9.23;100.00;99981.94;4844875;29;20646;-77
2023/03/30 00:13:36;;;;;;;19.20;13.23;;;8.60;99.90;;;9.11;100.00;99986.47;4845127;29;20057;-77
2023/03/30 00:16:06;;;;;;;22.20;12.70;;;8.60;99.90;;;9.06;100.00;99977.09;4861050;29;20497;-76
2023/03/30 00:18:33;;;;;;;19.52;11.98;;;8.70;99.90;;;9.05;100.00;99967.28;4866767;29;20355;-77
2023/03/30 00:21:01;;;;;;;19.27;12.05;;;8.70;99.90;;;9.27;100.00;99972.28;4861351;29;20443;-77
2023/03/30 00:23:27;;;;;;;;;;;8.70;99.90;;;9.27;100.00;99972.28;4862171;29;20089;-77
2023/03/30 00:25:54;;;;;;;18.20;11.43;;;8.70;99.90;;;9.00;100.00;99963.53;4861503;29;20296;-77
2023/03/30 00:28:21;;;;;;;15.73;11.20;;;8.60;99.90;;;9.09;100.00;99956.75;4861676;29;20049;-77
2023/03/30 00:30:48;;;;;;;16.42;10.57;;;8.60;99.90;;;9.10;100.00;99952.16;4859922;29;20048;-77
2023/03/30 00:33:14;;;;;;;13.70;9.38;;;8.60;99.90;;;9.01;100.00;99954.31;4860564;29;20649;-77
2023/03/30 00:35:40;;;;;;;18.17;9.90;;;8.60;99.90;;;9.34;100.00;99947.72;4860725;29;20595;-78
2023/03/30 00:38:06;;;;;;;15.60;9.18;;;8.60;99.90;;;9.35;100.00;99941.22;4860067;29;20119;-77
2023/03/30 00:40:34;;;;;;;17.17;8.68;;;8.70;99.90;;;9.39;100.00;99945.13;4860474;29;20037;-78
2023/03/30 00:43:11;;;;;;;14.90;9.25;;;8.80;99.90;;;9.38;100.00;99934.50;4856242;29;20132;-77
2023/03/30 00:45:37;;;;;;;13.88;8.35;;;8.80;99.90;;;9.33;100.00;99927.00;4861313;29;20040;-77
2023/03/30 00:48:22;;;;;;;13.85;8.32;;;8.70;99.90;;;8.88;100.00;99926.16;4860365;29;20042;-78
2023/03/30 00:50:55;;;;;;;12.18;7.50;;;8.70;99.90;;;8.82;100.00;99923.53;4871893;29;20048;-76
2023/03/30 00:53:36;;;;;;;12.23;7.43;;;8.60;99.90;;;8.91;100.00;99920.31;4859407;29;20033;-77
2023/03/30 00:56:06;;;;;;;13.05;7.53;;;8.60;99.90;;;9.25;100.00;99913.69;4856228;29;20053;-76
2023/03/30 00:58:34;;;;;;;14.55;7.53;;;8.80;99.90;;;8.92;100.00;99907.53;4866440;29;20334;-76
2023/03/30 01:01:03;;;;;;;;;;;8.80;99.90;;;8.94;100.00;99902.69;4866523;29;20041;-77
2023/03/30 01:03:46;;;;;;;10.13;6.72;;;8.80;99.90;;;8.88;100.00;99900.88;4864340;29;20364;-77
2023/03/30 01:06:16;;;;;;;10.55;6.97;;;8.80;99.90;;;9.11;100.00;99899.41;4867171;29;20113;-77
2023/03/30 01:08:44;;;;;;;11.02;6.97;;;8.80;99.90;;;9.29;100.00;99891.25;4860917;29;20660;-77
2023/03/30 01:11:10;;;;;;;9.55;7.05;;;8.80;99.90;;;9.10;100.00;99882.22;4860451;29;20098;-78
2023/03/30 01:13:45;;;;;;;10.20;6.53;;;8.80;99.90;;;9.28;100.00;99889.59;4860981;29;20044;-78
2023/03/30 01:16:25;;;;;;;14.10;7.20;;;8.80;99.90;;;9.34;100.00;99894.13;4858580;29;20045;-77
2023/03/30 01:19:18;;;;;;;11.35;6.85;;;8.80;99.90;;;9.32;100.00;99898.09;4852584;29;20033;-76
2023/03/30 01:22:25;;;;;;;11.10;6.38;;;8.80;99.90;;;9.48;100.00;99893.94;4859695;29;20498;-75
2023/03/30 01:25:21;;;;;;;9.50;6.20;;;8.90;99.90;;;9.66;100.00;99895.81;4860191;29;20120;-76
2023/03/30 01:28:31;;;;;;;10.13;6.38;;;9.10;99.90;;;9.74;100.00;99892.78;4845556;29;20477;-76
2023/03/30 01:31:40;;;;;;;10.52;5.93;;;9.20;99.90;;;9.82;100.00;99885.34;4864698;29;20494;-77
2023/03/30 01:34:32;;;;;;;8.07;5.03;;;9.30;99.90;;;9.87;100.00;99869.97;4860721;29;20066;-76
2023/03/30 01:37:54;;;;;;;12.05;5.18;;;9.40;99.90;;;10.02;100.00;99863.25;4860419;29;20052;-76
2023/03/30 01:40:29;;;;;;;;;;;9.50;99.90;;;9.99;100.00;99855.56;4859766;29;20132;-77
2023/03/30 01:43:23;;;;;;;8.48;4.90;;;9.50;99.90;;;10.09;100.00;99855.84;4860198;29;19936;-76
2023/03/30 01:46:07;;;;;;;8.73;4.50;;;9.60;99.90;;;9.99;100.00;99855.56;4860504;29;20049;-77
2023/03/30 01:48:47;;;;;;;9.82;5.05;;;9.70;99.90;;;10.27;100.00;99837.72;4859322;29;20068;-77
2023/03/30 01:51:43;;;;;;;8.98;4.07;;;9.90;99.90;;;10.47;100.00;99835.53;4858936;29;20038;-76
2023/03/30 01:54:22;;;;;;;6.20;3.70;;;10.00;99.90;;;10.56;100.00;99832.44;4844468;29;20053;-77
2023/03/30 01:57:19;;;;;;;7.47;4.10;;;10.20;99.90;;;10.70;100.00;99822.97;4859710;29;20029;-76
2023/03/30 02:00:12;;;;;;;8.00;4.40;;;10.20;99.90;;;10.70;100.00;99801.16;4834480;29;20045;-77
2023/03/30 02:02:47;;;;;;;7.25;3.72;;;10.30;99.90;;;10.71;100.00;99802.81;4861323;29;20042;-76
2023/03/30 02:05:16;;;;;;;7.32;3.88;;;10.30;99.90;;;10.84;100.00;99803.63;4864836;29;20046;-77
2023/03/30 02:07:50;;;;;;;9.55;3.85;;;10.40;99.90;;;10.76;100.00;99799.38;4873751;29;20483;-76
2023/03/30 02:10:21;;;;;;;7.40;3.38;;;10.40;99.90;;;10.83;100.00;99785.59;4860704;29;20049;-76
2023/03/30 02:12:50;;;;;;;7.00;3.55;;;10.50;99.90;;;11.04;100.00;99805.97;4860454;29;20033;-76
2023/03/30 02:15:18;;;;;;;11.05;4.60;;;10.70;99.90;;;11.20;100.00;99782.56;4864749;29;20071;-76
2023/03/30 02:17:46;;;;;;;7.38;3.58;;;10.90;99.90;;;10.98;100.00;99787.81;4843796;29;20095;-76
2023/03/30 02:20:16;;;;;;;6.03;3.10;;;10.90;99.90;;;10.90;100.00;99786.31;4860257;29;20502;-76
2023/03/30 02:22:44;;;;;;;6.00;3.40;;;10.90;99.90;;;10.91;100.00;99796.97;4859925;29;20508;-76
2023/03/30 02:25:11;;;;;;;8.77;3.75;;;10.90;99.90;;;10.93;100.00;99791.28;4858577;29;20079;-76
2023/03/30 02:27:40;;;;;;;9.10;3.72;;;10.90;99.90;;;10.94;100.00;99792.94;4859829;29;20041;-77
2023/03/30 02:30:07;;;;;;;6.55;3.38;;;10.90;99.90;;;11.14;100.00;99784.34;4859463;29;20053;-76
2023/03/30 02:32:44;;;;;;;6.20;3.75;;;10.90;99.90;;;11.16;100.00;99782.19;4859542;29;20058;-76
2023/03/30 02:35:26;;;;;;;9.98;4.28;;;10.80;99.90;;;11.02;100.00;99762.53;4867109;29;20417;-75
2023/03/30 02:38:32;;;;;;;7.25;3.90;;;10.80;99.90;;;11.01;100.00;99769.06;4861859;29;20025;-76
2023/03/30 02:41:40;;;;;;;6.93;3.72;;;10.70;99.90;;;10.97;100.00;99759.72;4833245;29;20041;-75
2023/03/30 02:44:24;;;;;;;9.55;4.00;;;10.70;99.90;;;10.55;100.00;99728.00;4847484;29;20110;-76
2023/03/30 02:47:32;;;;;;;7.72;3.70;;;10.60;99.90;;;10.57;100.00;99704.03;4846790;29;20048;-78
2023/03/30 02:50:32;;;;;;;6.75;4.00;;;10.70;99.90;;;10.89;100.00;99721.88;4862974;29;20046;-78
2023/03/30 02:53:34;;;;;;;7.28;3.85;;;10.80;99.90;;;11.06;100.00;99739.13;4853065;29;20045;-77
2023/03/30 02:56:12;;;;;;;;;;;10.80;99.90;;;10.74;100.00;99727.81;4851398;29;20049;-75
2023/03/30 02:59:11;;;;;;;8.32;3.78;;;10.70;99.90;;;10.64;100.00;99742.91;4847719;29;19924;-75
2023/03/30 03:01:59;;;;;;;8.57;3.53;;;10.60;99.90;;;10.81;100.00;99739.47;4845806;29;20123;-76
2023/03/30 03:04:28;;;;;;;9.30;4.20;;;10.60;99.90;;;10.86;100.00;99711.44;4868785;29;20048;-76
2023/03/30 03:07:17;;;;;;;6.35;3.85;;;10.60;99.90;;;10.75;100.00;99722.16;4866548;29;20375;-78
2023/03/30 03:09:43;;;;;;;8.52;4.25;;;10.60;99.90;;;10.86;100.00;99723.19;4861241;29;20124;-78
2023/03/30 03:12:09;;;;;;;7.97;3.78;;;10.60;99.90;;;10.91;100.00;99736.94;4860703;29;20041;-76
2023/03/30 03:14:38;;;;;;;7.85;4.00;;;10.60;99.90;;;10.70;100.00;99718.47;4861621;29;20497;-76
2023/03/30 03:17:05;;;;;;;6.32;3.53;;;10.70;99.90;;;10.83;100.00;99698.28;4845981;29;20038;-76
2023/03/30 03:19:34;;;;;;;8.45;3.75;;;10.60;99.90;;;10.98;100.00;99739.53;4861274;29;20041;-77
2023/03/30 03:22:02;;;;;;;6.47;3.38;;;10.60;99.90;;;10.75;100.00;99726.78;4860767;29;20073;-77
2023/03/30 03:24:32;;;;;;;6.22;3.60;;;10.70;99.90;;;10.90;100.00;99729.00;4846267;29;20041;-78
2023/03/30 03:27:17;;;;;;;6.57;3.60;;;10.70;99.90;;;10.73;100.00;99729.75;4862945;29;20504;-77
2023/03/30 03:29:58;;;;;;;6.55;3.50;;;10.70;99.90;;;10.86;100.00;99727.81;4846071;29;20102;-79
2023/03/30 03:32:24;;;;;;;8.32;3.47;;;10.80;99.90;;;10.87;100.00;99729.47;4867595;29;20043;-78
2023/03/30 03:34:50;;;;;;;7.30;3.70;;;10.80;99.90;;;10.74;100.00;99693.22;4856103;29;21970;-82
2023/03/30 03:37:17;;;;;;;6.47;3.30;;;10.90;99.90;;;10.96;100.00;99699.91;4845935;29;20132;-79
2023/03/30 03:39:44;;;;;;;6.28;3.63;;;10.90;99.90;;;11.35;100.00;99687.25;4868603;29;20041;-78
2023/03/30 03:42:11;;;;;;;6.03;3.50;;;11.00;99.90;;;11.40;100.00;99691.16;4857791;29;20037;-76
2023/03/30 03:44:46;;;;;;;6.22;3.15;;;11.10;99.90;;;11.37;100.00;99690.56;4845233;29;20455;-77
2023/03/30 03:47:13;;;;;;;7.03;2.83;;;11.20;99.90;;;11.51;100.00;99687.53;4861209;29;20520;-77
2023/03/30 03:49:39;;;;;;;6.78;3.08;;;11.30;99.90;;;11.46;100.00;99673.81;4864042;29;20038;-78
2023/03/30 03:52:05;;;;;;;6.78;3.15;;;11.50;99.90;;;11.75;100.00;99680.00;4860004;29;20495;-77
2023/03/30 03:54:31;;;;;;;7.72;3.40;;;11.70;99.90;;;12.10;97.87;99664.47;4856367;29;20060;-78
2023/03/30 03:56:58;;;;;;;7.07;2.80;;;11.80;99.90;;;12.07;96.76;99664.97;4839188;29;20040;-76
2023/03/30 03:59:23;;;;;;;8.50;2.92;;;11.90;99.90;;;12.18;95.88;99658.56;4875830;29;20378;-75
2023/03/30 04:01:49;;;;;;;6.88;2.95;;;11.90;99.90;;;12.02;94.75;99646.56;4859591;29;20265;-77
2023/03/30 04:04:15;;;;;;;5.78;2.90;;;11.90;99.90;;;12.29;92.87;99665.00;4859803;29;20040;-78
2023/03/30 04:06:41;;;;;;;8.57;2.95;;;12.10;99.90;;;12.28;93.18;99681.66;4876847;29;20117;-77
2023/03/30 04:09:07;;;;;;;6.80;2.42;;;12.10;99.90;;;12.46;91.97;99661.41;4861882;29;20401;-76
2023/03/30 04:11:53;;;;;;;6.00;2.78;;;12.20;99.90;;;12.54;90.40;99657.41;4874882;29;20069;-76
2023/03/30 04:14:39;;;;;;;5.25;2.95;;;12.20;99.90;;;12.46;90.06;99651.25;4876276;29;20459;-76
2023/03/30 04:17:10;;;;;;;4.97;2.58;;;12.30;99.90;;;12.59;89.40;99654.72;4870485;29;20188;-76
2023/03/30 04:19:40;;;;;;;9.85;2.80;;;12.40;99.90;;;12.61;89.42;99652.56;4876556;29;20045;-77
2023/03/30 04:22:34;;;;;;;7.47;2.75;;;12.30;99.90;;;12.51;88.54;99632.19;4869221;29;20393;-75
2023/03/30 04:25:24;;;;;;;5.40;2.20;;;12.30;99.90;;;12.63;88.25;99626.59;4876751;29;20041;-76
2023/03/30 04:28:06;;;;;;;5.50;2.63;;;12.30;99.90;;;12.61;87.86;99628.78;4858902;29;20033;-75
2023/03/30 04:30:58;;;;;;;5.28;2.60;;;12.40;99.90;;;12.55;88.82;99612.53;4875042;29;20078;-76
2023/03/30 04:33:49;;;;;;;8.13;2.92;;;12.30;99.90;;;12.57;87.72;99622.13;4857524;29;20488;-76
2023/03/30 04:36:30;;;;;;;11.02;2.95;;;12.30;99.90;;;12.55;87.11;99612.53;4875653;29;20044;-75
2023/03/30 04:39:29;;;;;;;7.45;3.00;;;12.30;99.90;;;12.56;85.94;99611.47;4862029;29;20037;-74
2023/03/30 04:42:29;;;;;;;5.20;2.50;;;12.30;99.90;;;12.61;86.01;99601.41;4846287;29;20052;-78
2023/03/30 04:45:19;;;;;;;6.70;2.83;;;12.30;99.90;;;12.62;86.65;99622.22;4850208;29;20611;-79
2023/03/30 04:47:47;;;;;;;6.75;2.70;;;12.30;99.90;;;12.55;86.95;99624.28;4870909;29;20153;-76
2023/03/30 04:50:22;;;;;;;8.23;2.90;;;12.20;99.90;;;12.45;88.65;99632.38;4869255;29;20085;-76
2023/03/30 04:53:06;;;;;;;5.38;2.70;;;12.10;99.90;;;12.06;90.89;99635.97;4879460;29;20508;-76
2023/03/30 04:55:49;;;;;;;8.40;3.30;;;12.00;99.90;;;12.14;91.84;99637.44;4868320;29;20113;-75
2023/03/30 04:58:39;;;;;;;6.78;2.85;;;11.90;99.90;;;11.82;92.99;99638.06;4866383;29;20304;-76
2023/03/30 05:01:36;;;;;;;7.07;2.97;;;11.80;99.90;;;11.78;93.79;99637.72;4829531;29;20033;-76
2023/03/30 05:04:18;;;;;;;6.97;2.95;;;11.60;99.90;;;11.88;93.60;99635.13;4887571;29;20395;-76
2023/03/30 05:07:07;;;;;;;8.45;3.22;;;11.50;99.90;;;11.75;93.21;99635.47;4878359;29;20048;-76
2023/03/30 05:09:44;;;;;;;8.27;3.05;;;11.50;99.90;;;11.89;93.16;99625.84;4866438;29;20044;-76
2023/03/30 05:12:39;;;;;;;10.20;3.33;;;11.40;99.90;;;11.88;92.89;99629.66;4865830;29;20048;-76
2023/03/30 05:15:26;;;;;;;7.25;2.88;;;11.40;99.90;;;11.82;93.10;99625.22;4864638;29;20069;-78
2023/03/30 05:18:26;;;;;;;8.13;3.13;;;11.40;99.90;;;11.81;92.63;99623.56;4860727;29;20060;-76
2023/03/30 05:21:10;;;;;;;9.95;2.92;;;11.50;99.90;;;11.90;92.26;99632.16;4860890;29;20049;-78
2023/03/30 05:23:55;;;;;;;5.70;2.63;;;11.50;99.90;;;11.98;90.96;99631.72;4847011;29;20530;-77
2023/03/30 05:26:44;;;;;;;8.18;2.70;;;11.60;99.90;;;11.93;90.67;99621.56;4856727;29;20045;-77
2023/03/30 05:29:21;;;;;;;8.60;3.00;;;11.70;99.90;;;12.00;89.98;99609.63;4863449;29;20038;-77
2023/03/30 05:32:05;;;;;;;5.88;2.58;;;11.70;99.90;;;12.15;88.71;99617.22;4860721;29;20052;-76
2023/03/30 05:34:47;;;;;;;6.55;2.78;;;11.80;99.90;;;12.25;87.83;99611.06;4859248;29;20134;-76
2023/03/30 05:37:28;;;;;;;6.35;2.72;;;11.90;99.90;;;12.36;86.99;99608.22;4845720;29;20040;-76
2023/03/30 05:40:20;;;;;;;8.52;2.75;;;12.00;99.90;;;12.35;86.73;99606.56;4842245;29;20111;-75
2023/03/30 05:43:05;;;;;;;8.23;2.53;;;12.10;99.90;;;12.52;85.83;99617.44;4859758;29;20114;-77
2023/03/30 05:45:53;;;;;;;7.95;2.67;;;12.20;99.90;;;12.61;84.26;99604.16;4858387;29;20044;-76
2023/03/30 05:48:33;;;;;;;7.38;2.75;;;12.30;99.90;;;12.69;83.93;99605.56;4842987;29;20069;-77
2023/03/30 05:51:06;;;;;;;10.10;2.53;;;12.30;99.90;;;12.68;83.30;99603.91;4843565;29;20095;-77
2023/03/30 05:53:55;;;;;;;8.18;2.50;;;12.30;99.90;;;12.70;82.48;99606.41;4866718;29;20040;-78
2023/03/30 05:56:47;;;;;;;7.88;2.42;;;12.40;99.90;;;12.79;82.04;99610.34;4880590;29;20162;-78
2023/03/30 05:59:20;;;;;;;10.07;2.70;;;12.40;99.90;;;12.82;82.14;99615.28;4866244;29;20064;-78
2023/03/30 06:01:57;;;;;;;8.43;2.17;;;12.40;99.90;;;12.87;81.63;99620.00;4868127;29;20432;-77
2023/03/30 06:04:26;;;;;;;8.57;2.70;;;12.50;99.90;;;12.78;81.92;99605.94;4880402;29;20544;-78
2023/03/30 06:06:52;;;;;;;5.90;1.98;;;12.50;99.90;;;12.95;80.35;99611.31;4883578;29;20291;-76
2023/03/30 06:09:18;;;;;;;4.35;2.00;;;12.60;99.90;;;12.87;80.83;99592.63;4885320;29;20093;-77
2023/03/30 06:11:45;;;;;;;8.38;2.38;;;12.70;99.90;;;13.03;79.82;99602.66;4866343;29;20561;-78
2023/03/30 06:14:18;;;;;;;6.28;2.75;;;12.70;99.90;;;13.20;79.35;99604.44;4885315;29;20132;-78
2023/03/30 06:17:03;;;;;;;4.82;1.95;;;12.80;99.90;;;13.40;77.98;99592.88;4861048;29;20044;-78
2023/03/30 06:19:29;;;;;;;8.70;2.10;;;13.00;99.90;;;13.44;77.50;99599.50;4858910;29;20033;-76
2023/03/30 06:21:55;;;;;;;4.75;1.95;;;13.10;99.90;;;13.52;77.51;99590.78;4852605;29;20052;-78
2023/03/30 06:24:27;;;;;;;8.70;2.50;;;13.20;99.90;;;13.70;75.86;99583.25;4838023;29;20629;-79
2023/03/30 06:26:54;;;;;;;6.50;2.13;;;13.30;99.90;;;13.81;75.99;99582.22;4852545;29;20070;-80
2023/03/30 06:29:20;;;;;;;5.50;1.95;;;13.50;99.90;;;13.93;75.31;99568.31;4867657;29;20093;-81
2023/03/30 06:31:46;;;;;;;4.78;1.92;;;13.60;99.90;;;14.03;74.48;99547.50;4896945;29;20033;-78
2023/03/30 06:34:31;;;;;;;5.75;1.83;;;13.80;99.90;;;14.08;73.60;99562.06;4884273;29;20512;-79
2023/03/30 06:36:57;;;;;;;4.85;1.85;;;14.00;99.90;;;14.41;71.95;99550.13;4886525;29;20048;-78
2023/03/30 06:39:24;;;;;;;7.00;1.88;;;14.20;99.90;;;14.64;71.02;99549.66;4872931;29;20064;-77
2023/03/30 06:41:50;;;;;;;8.30;2.00;;;14.30;99.90;;;14.59;69.99;99554.31;4852850;29;20581;-79
2023/03/30 06:44:41;;;;;;;6.38;2.00;;;14.40;99.90;;;14.58;70.60;99549.91;4855074;29;20508;-76
2023/03/30 06:47:12;;;;;;;6.45;1.95;;;14.50;99.90;;;14.75;69.76;99553.28;4831994;29;20041;-77
2023/03/30 06:49:38;;;;;;;3.92;1.80;;;14.60;99.90;;;14.80;69.13;99545.03;4848101;29;20037;-77
2023/03/30 06:52:42;;;;;;;5.32;1.88;;;14.70;99.90;;;14.83;69.13;99540.94;4864630;29;20055;-79
2023/03/30 06:55:08;;;;;;;7.55;2.80;;;14.70;99.90;;;14.76;67.42;99543.13;4873390;29;20029;-79
2023/03/30 06:57:34;;;;;;;5.88;2.13;;;14.80;99.90;;;14.84;68.50;99548.09;4856343;29;20029;-80
2023/03/30 07:00:08;;;;;;;7.18;2.20;;;14.80;99.90;;;14.82;68.82;99542.84;4860308;29;20033;-80
2023/03/30 07:02:41;;;;;;;4.57;1.50;;;14.80;99.90;;;14.94;67.88;99558.25;4864374;29;20485;-77
2023/03/30 07:05:07;;;;;;;8.02;2.22;;;14.90;99.90;;;15.10;67.88;99546.16;4872481;29;20041;-77
2023/03/30 07:07:59;;;;;;;5.32;1.88;;;14.80;99.90;;;14.93;67.54;99562.09;4881068;29;20042;-78
2023/03/30 07:10:26;;;;;;;5.22;2.05;;;14.80;99.90;;;15.22;67.71;99564.31;4887637;29;20033;-81
2023/03/30 07:12:52;;;;;;;5.43;2.20;;;14.80;99.90;;;15.12;67.07;99564.31;4888081;29;20029;-78
2023/03/30 07:15:20;;;;;;;6.85;2.00;;;14.80;99.90;;;14.86;67.75;99591.75;4870496;29;20328;-79
2023/03/30 07:17:45;;;;;;;5.72;1.80;;;14.90;99.90;;;14.83;69.08;99579.38;4856155;29;20052;-80
2023/03/30 07:20:14;;;;;;;4.50;1.75;;;14.80;99.90;;;15.15;68.12;99591.25;4867404;29;20068;-78
2023/03/30 07:23:03;;;;;;;3.85;1.90;;;14.90;99.90;;;15.30;68.36;99579.44;4870173;29;20132;-80
2023/03/30 07:25:30;;;;;;;7.65;2.13;;;15.00;99.90;;;15.13;67.61;99569.53;4878878;29;20503;-79
2023/03/30 07:27:57;;;;;;;5.43;1.93;;;15.00;99.90;;;15.08;68.30;99575.84;4863089;29;20085;-77
2023/03/30 07:30:23;;;;;;;6.07;1.70;;;15.00;99.90;;;14.88;69.15;99559.34;4864403;29;20128;-78
2023/03/30 07:32:57;;;;;;;7.50;1.60;;;14.90;99.90;;;14.72;69.69;99573.03;4871356;29;20030;-77
2023/03/30 07:35:24;;;;;;;8.63;2.10;;;14.80;99.90;;;14.99;69.50;99571.19;4857565;29;20052;-78
2023/03/30 07:37:50;;;;;;;6.20;1.90;;;14.80;99.90;;;15.09;68.21;99582.97;4863572;29;20037;-76
2023/03/30 07:40:20;;;;;;;5.90;1.73;;;14.80;99.90;;;15.22;67.65;99587.09;4877986;29;20053;-78
2023/03/30 07:42:46;;;;;;;4.43;1.92;;;14.90;99.90;;;15.23;67.72;99569.53;4873145;29;20043;-76
2023/03/30 07:45:19;;;;;;;5.80;1.83;;;15.00;99.90;;;15.38;67.09;99584.38;4868616;29;20120;-77
2023/03/30 07:47:45;;;;;;;8.43;1.88;;;15.10;99.90;;;15.31;67.20;99595.63;4865583;29;20045;-77
2023/03/30 07:50:14;;;;;;;6.35;1.95;;;15.10;99.90;;;15.50;66.38;99571.16;4876087;29;20045;-77
2023/03/30 07:52:40;;;;;;;5.57;1.77;;;15.20;99.90;;;15.40;67.21;99562.94;4870039;29;20041;-79
2023/03/30 07:55:09;;;;;;;7.13;1.80;;;15.30;99.90;;;15.53;67.09;99580.78;4892390;29;20092;-78
2023/03/30 07:57:41;;;;;;;6.93;1.83;;;15.40;99.90;;;15.57;67.22;99579.13;4903873;29;20041;-77
2023/03/30 08:00:09;;;;;;;6.70;1.60;;;15.40;99.90;;;15.73;66.05;99590.13;4897932;29;20029;-79
2023/03/30 08:02:56;;;;;;;8.63;1.80;;;15.50;99.90;;;15.95;66.31;99587.94;4893777;29;20060;-79
2023/03/30 08:05:22;;;;;;;4.88;1.70;;;15.70;99.90;;;16.00;64.23;99580.75;4883021;29;20037;-79
2023/03/30 08:07:58;;;;;;;5.85;2.05;;;15.70;99.90;;;15.81;65.07;99575.81;4889022;29;20493;-78
2023/03/30 08:10:29;;;;;;;5.68;1.50;;;15.80;99.90;;;16.16;63.23;99576.03;4871607;29;20038;-78
2023/03/30 08:12:55;;;;;;;4.93;1.65;;;15.90;99.90;;;16.05;63.65;99566.97;4861967;29;20129;-79
2023/03/30 08:15:22;;;;;;;5.65;1.85;;;16.00;99.90;;;15.94;63.29;99575.28;4844074;29;20415;-79
2023/03/30 08:17:48;;;;;;;4.97;1.70;;;16.00;99.90;;;16.35;61.89;99578.97;4862357;29;20046;-77
2023/03/30 08:20:14;;;;;;;4.88;1.65;;;16.20;99.90;;;16.62;62.56;99575.00;4879045;29;20045;-78
2023/03/30 08:22:40;;;;;;;4.40;1.70;;;16.40;99.90;;;16.68;61.52;99587.63;4883240;29;20056;-76
2023/03/30 08:25:06;;;;;;;5.95;1.73;;;16.40;99.90;;;16.48;61.62;99594.06;4886172;29;20041;-77
2023/03/30 08:27:32;;;;;;;5.70;1.98;;;16.50;99.90;;;16.68;62.16;99598.63;4884156;29;20108;-78
2023/03/30 08:29:59;;;;;;;6.70;1.50;;;16.50;99.90;;;16.83;60.72;99583.97;4872262;29;20141;-77
2023/03/30 08:32:25;;;;;;;5.72;1.92;;;16.50;99.90;;;16.72;60.54;99591.47;4871136;29;20395;-79
2023/03/30 08:34:52;;;;;;;6.70;1.80;;;16.50;99.90;;;16.75;61.11;99593.66;4882747;29;20032;-80
2023/03/30 08:37:18;;;;;;;5.43;1.67;;;16.40;99.90;;;16.78;61.65;99586.75;4865101;29;20096;-77
2023/03/30 08:39:44;;;;;;;5.75;1.77;;;16.60;99.90;;;16.96;60.18;99571.47;4873416;29;20393;-80
2023/03/30 08:43:02;;;;;;;4.88;1.77;;;16.70;99.90;;;17.13;60.43;99573.06;4857483;29;20050;-80
2023/03/30 08:45:39;;;;;;;7.32;1.70;;;16.70;99.90;;;17.44;59.14;99572.81;4874575;29;20485;-79
2023/03/30 08:48:16;;;;;;;7.43;1.85;;;17.10;99.90;;;17.54;57.60;99548.72;4841714;29;20055;-77
2023/03/30 08:50:52;;;;;;;6.45;1.80;;;17.40;99.90;;;17.56;58.41;99564.16;4868187;29;20046;-79
2023/03/30 08:53:19;;;;;;;8.45;2.20;;;17.50;99.90;;;17.72;57.26;99571.19;4876441;29;20037;-78
2023/03/30 08:56:03;;;;;;;6.75;1.88;;;17.50;99.90;;;17.44;58.08;99564.53;4871497;29;20652;-80
2023/03/30 08:59:24;;;;;;;6.65;2.00;;;17.50;99.90;;;17.14;58.52;99556.25;4854406;29;20041;-79
2023/03/30 09:02:17;;;;;;;6.80;2.15;;;17.20;99.90;;;17.07;59.82;99564.84;4836274;29;20049;-78
2023/03/30 09:05:02;;;;;;;6.53;2.00;;;17.10;99.90;;;17.03;59.14;99557.41;4863117;29;20509;-79
2023/03/30 09:08:00;;;;;;;6.30;2.00;;;17.10;99.90;;;17.45;58.37;99563.44;4857498;29;20037;-80
2023/03/30 09:10:32;;;;;;;8.70;2.63;;;17.20;99.90;;;17.15;58.71;99571.69;4846163;29;20045;-79
2023/03/30 09:13:03;;;;;;;6.53;2.40;;;17.10;99.90;;;17.22;58.65;99565.81;4878521;29;20085;-79
2023/03/30 09:15:41;;;;;;;7.40;2.28;;;17.10;99.90;;;17.47;57.16;99541.91;4861302;29;20041;-81
2023/03/30 09:18:18;;;;;;;6.07;2.17;;;17.50;99.90;;;17.61;57.09;99555.84;4865782;29;20093;-79
2023/03/30 09:20:47;;;;;;;6.97;2.00;;;17.50;99.90;;;17.45;58.39;99568.94;4855010;29;20503;-81
2023/03/30 09:23:16;;;;;;;7.60;1.83;;;17.50;99.90;;;17.56;57.94;99561.41;4861031;29;20071;-78
2023/03/30 09:26:10;;;;;;;8.05;2.40;;;17.50;99.90;;;17.71;58.50;99557.66;4890887;29;20037;-80
2023/03/30 09:29:19;;;;;;;6.20;2.15;;;17.60;99.90;;;18.08;56.50;99561.72;4887083;29;20048;-81
2023/03/30 09:31:54;;;;;;;8.25;2.05;;;17.90;99.90;;;18.52;56.32;99555.09;4886616;29;20068;-80
2023/03/30 09:34:49;;;;;;;7.72;1.95;;;18.30;99.90;;;18.80;54.96;99557.22;4885423;29;22128;-82
2023/03/30 09:37:17;;;;;;;6.53;2.25;;;;;;;19.26;54.25;99555.69;4851444;29;20048;-81
2023/03/30 09:39:48;;;;;;;5.55;1.88;;;;;;;18.66;54.75;99568.19;4858403;29;20128;-79
2023/03/30 09:42:46;;;;;;;6.38;1.77;;;18.70;99.90;;;18.48;54.72;99565.09;4857054;29;20088;-80
2023/03/30 09:45:26;;;;;;;6.10;1.95;;;18.70;99.90;;;17.57;54.55;99566.63;4889345;29;20375;-77
2023/03/30 09:47:53;;;;;;;5.10;1.70;;;18.00;99.90;;;17.15;56.21;99551.56;4880546;29;20401;-80
2023/03/30 09:50:27;;;;;;;5.43;1.70;;;17.50;99.90;;;16.87;57.37;99554.75;4891175;29;20040;-81
2023/03/30 09:53:05;;;;;;;6.10;1.92;;;17.00;99.90;;;16.49;58.29;99569.03;4858825;29;20049;-79
2023/03/30 09:55:36;;;;;;;9.27;2.15;;;16.70;99.90;;;16.19;60.86;99587.31;4893171;29;20040;-78
2023/03/30 09:58:12;;;;;;;10.52;2.10;;;16.40;99.90;;;15.61;66.30;99609.66;4899956;29;20445;-80
2023/03/30 10:00:38;;;;;;;9.65;2.65;;;15.80;99.90;;;14.60;80.19;99663.00;4875897;29;20063;-77
2023/03/30 10:03:06;;;;;;;8.15;2.42;;;14.90;99.90;;;13.72;93.02;99648.75;4884048;29;20068;-77
2023/03/30 10:05:37;;;;;;;6.53;2.38;;;14.10;99.90;;;13.34;100.00;99652.25;4885728;29;20040;-76
2023/03/30 10:08:18;;;;;;;6.93;2.53;;;13.50;99.90;;;13.07;100.00;99653.09;4880876;29;20050;-76
2023/03/30 10:10:44;;;;;;;7.03;2.42;;;13.20;99.90;;;12.94;100.00;99631.56;4894304;29;20040;-77
2023/03/30 10:13:18;;;;;;;5.82;2.53;;;13.10;99.90;;;13.20;100.00;99632.69;4907720;29;20036;-78
2023/03/30 10:15:51;;;;;;;6.00;3.00;;;13.10;99.90;;;13.37;100.00;99623.50;4895676;29;20033;-77
2023/03/30 10:18:17;;;;;;;6.78;3.08;;;13.20;99.90;;;13.43;100.00;99627.16;4874563;29;20037;-77
2023/03/30 10:20:50;;;;;;;6.40;2.78;;;13.30;99.90;;;13.62;100.00;99624.81;4894567;29;20112;-77
2023/03/30 10:23:21;;;;;;;7.47;3.22;;;13.40;99.90;;;13.97;100.00;99617.13;4893697;29;20084;-77
2023/03/30 10:25:49;;;;;;;7.03;2.70;;;13.60;99.90;;;14.20;100.00;99618.66;4894110;29;20156;-77
2023/03/30 10:28:25;;;;;;;6.82;2.90;;;13.80;99.90;;;14.31;100.00;99611.28;4887004;29;20045;-77
2023/03/30 10:30:58;;;;;;;5.75;2.72;;;13.90;99.90;;;14.25;100.00;99602.22;4889301;29;20044;-79
2023/03/30 10:33:27;;;;;;;5.65;2.53;;;13.90;99.90;;;14.17;100.00;99583.50;4883316;29;20079;-78
2023/03/30 10:35:55;;;;;;;6.30;2.70;;;13.90;99.90;;;14.17;100.00;99610.91;4887487;29;20116;-78
2023/03/30 10:38:24;;;;;;;7.95;2.92;;;13.80;99.90;;;14.01;100.00;99612.75;4887403;29;20049;-79
2023/03/30 10:41:01;;;;;;;6.13;2.95;;;13.80;99.90;;;14.26;100.00;99630.44;4885245;29;20036;-77
2023/03/30 10:43:32;;;;;;;6.95;2.85;;;13.80;99.90;;;14.48;96.32;99624.81;4895505;29;20044;-77
2023/03/30 10:46:14;;;;;;;6.88;2.60;;;13.90;99.90;;;14.34;91.45;99610.75;4877785;29;20044;-79
2023/03/30 10:49:23;;;;;;;6.70;2.33;;;14.00;99.90;;;14.35;90.50;99623.38;4876125;29;20036;-79
2023/03/30 10:52:19;;;;;;;5.07;2.30;;;14.20;99.90;;;14.65;87.97;99647.38;4903551;29;20039;-79
2023/03/30 10:55:40;;;;;;;3.97;1.30;;;14.30;99.90;;;13.55;91.85;99682.63;4879887;29;20159;-76
2023/03/30 10:58:34;;;;;;;4.32;1.50;;;14.00;99.90;;;12.23;100.00;99693.34;4806536;29;20065;-77